Time;durP1;ratioP1;P1;durP2;ratioP2;P2;SDS_P1;SDS_P2;PMS_P1;PMS_P2;Temp;Humidity;BMP_temperature;BMP_pressure;BME280_temperature;BME280_humidity;BME280_pressure;Samples;Min_cycle;Max_cycle;Signal;HPM_P1;HPM_P2
2020/12/16 00:00:46;;;;;;;3.60;2.80;;;;;;;;;;5106329;28;20224;-57
2020/12/16 00:03:12;;;;;;;3.63;3.33;;;;;;;;;;5102026;28;20262;-58
2020/12/16 00:05:38;;;;;;;5.23;2.90;;;;;;;;;;5080009;28;20223;-57
2020/12/16 00:08:04;;;;;;;3.37;3.07;;;;;;;;;;5076883;28;20190;-56
2020/12/16 00:10:30;;;;;;;4.83;3.53;;;;;;;;;;5112100;28;20273;-57
2020/12/16 00:12:56;;;;;;;4.00;3.60;;;;;;;;;;5102492;28;20717;-58
2020/12/16 00:15:22;;;;;;;3.40;3.10;;;;;;;;;;5086270;28;20179;-57
2020/12/16 00:17:52;;;;;;;3.67;3.00;;;;;;;;;;5098972;28;20563;-57
2020/12/16 00:20:18;;;;;;;3.47;3.17;;;;;;;;;;5112015;28;20179;-57
2020/12/16 00:22:44;;;;;;;4.10;3.07;;;;;;;;;;5099755;27;20579;-57
2020/12/16 00:25:11;;;;;;;3.47;3.17;;;;;;;;;;5111968;28;20179;-57
2020/12/16 00:27:37;;;;;;;3.30;3.03;;;;;;;;;;5096869;27;20183;-57
2020/12/16 00:30:07;;;;;;;3.30;3.00;;;;;;;;;;5121805;27;20237;-57
2020/12/16 00:32:35;;;;;;;5.80;3.70;;;;;;;;;;5112114;28;20187;-57
2020/12/16 00:35:01;;;;;;;3.67;2.83;;;;;;;;;;5112092;28;20206;-57
2020/12/16 00:37:27;;;;;;;3.13;2.83;;;;;;;;;;5082311;28;20747;-60
2020/12/16 00:39:53;;;;;;;3.37;2.93;;;;;;;;;;5113731;28;20202;-59
2020/12/16 00:42:19;;;;;;;3.73;3.27;;;;;;;;;;5101495;28;20633;-57
2020/12/16 00:44:45;;;;;;;3.43;3.13;;;;;;;;;;5094704;28;20174;-57
2020/12/16 00:47:11;;;;;;;3.70;3.23;;;;;;;;;;5118474;27;20171;-58
2020/12/16 00:49:37;;;;;;;3.77;3.20;;;;;;;;;;5109844;28;20206;-56
2020/12/16 00:52:03;;;;;;;4.20;3.30;;;;;;;;;;5106760;28;20188;-57
2020/12/16 00:54:29;;;;;;;3.20;2.90;;;;;;;;;;5083663;28;20187;-57
2020/12/16 00:56:55;;;;;;;4.30;3.47;;;;;;;;;;5103359;27;20665;-57
2020/12/16 00:59:21;;;;;;;3.33;3.00;;;;;;;;;;5114872;27;20182;-57
2020/12/16 01:01:47;;;;;;;3.47;3.17;;;;;;;;;;5113754;28;20262;-57
2020/12/16 01:04:13;;;;;;;3.43;2.60;;;;;;;;;;5105844;28;20226;-56
2020/12/16 01:06:40;;;;;;;3.23;2.93;;;;;;;;;;5100351;28;20190;-57
2020/12/16 01:09:06;;;;;;;3.97;3.57;;;;;;;;;;5125493;27;20182;-56
2020/12/16 01:11:36;;;;;;;3.80;3.00;;;;;;;;;;5097942;28;20239;-57
2020/12/16 01:14:04;;;;;;;3.83;2.97;;;;;;;;;;5104663;28;20207;-56
2020/12/16 01:16:36;;;;;;;5.20;3.17;;;;;;;;;;5093632;28;20195;-57
2020/12/16 01:19:04;;;;;;;3.27;2.97;;;;;;;;;;5108876;28;20183;-57
2020/12/16 01:21:33;;;;;;;3.73;3.13;;;;;;;;;;5100015;28;20187;-57
2020/12/16 01:23:59;;;;;;;3.47;3.17;;;;;;;;;;5095989;28;20195;-57
2020/12/16 01:26:25;;;;;;;3.20;2.90;;;;;;;;;;5075143;28;20184;-58
2020/12/16 01:28:51;;;;;;;3.80;3.00;;;;;;;;;;5087058;28;20244;-57
2020/12/16 01:31:17;;;;;;;3.57;3.20;;;;;;;;;;5102980;28;20275;-56
2020/12/16 01:33:43;;;;;;;3.20;2.90;;;;;;;;;;5111389;28;20215;-59
2020/12/16 01:36:10;;;;;;;3.47;2.90;;;;;;;;;;5101522;28;20237;-59
2020/12/16 01:38:37;;;;;;;3.33;3.03;;;;;;;;;;5111453;27;20199;-57
2020/12/16 01:41:04;;;;;;;3.57;2.63;;;;;;;;;;5111497;28;20256;-57
2020/12/16 01:43:34;;;;;;;3.10;2.80;;;;;;;;;;5088433;28;20186;-57
2020/12/16 01:46:00;;;;;;;3.17;2.80;;;;;;;;;;5101906;28;20212;-57
2020/12/16 01:48:26;;;;;;;3.47;3.17;;;;;;;;;;5106808;28;20206;-57
2020/12/16 01:50:52;;;;;;;3.53;2.90;;;;;;;;;;5109384;28;20262;-57
2020/12/16 01:53:19;;;;;;;3.23;2.93;;;;;;;;;;5109358;27;20179;-57
2020/12/16 01:55:46;;;;;;;3.07;2.77;;;;;;;;;;5103530;28;20184;-56
2020/12/16 01:58:14;;;;;;;3.67;3.07;;;;;;;;;;5105721;27;20579;-57
2020/12/16 02:00:40;;;;;;;3.30;3.00;;;;;;;;;;5112022;28;20268;-57
2020/12/16 02:03:08;;;;;;;3.90;3.00;;;;;;;;;;5087628;28;20248;-57
2020/12/16 02:05:34;;;;;;;2.90;2.70;;;;;;;;;;5109473;27;20215;-57
2020/12/16 02:08:02;;;;;;;3.03;2.70;;;;;;;;;;5108402;27;20254;-57
2020/12/16 02:10:28;;;;;;;3.37;3.00;;;;;;;;;;5101924;28;20184;-58
2020/12/16 02:12:54;;;;;;;2.93;2.63;;;;;;;;;;5102521;28;20186;-59
2020/12/16 02:15:20;;;;;;;3.20;2.73;;;;;;;;;;5112618;28;20178;-58
2020/12/16 02:17:46;;;;;;;5.73;3.33;;;;;;;;;;5108970;28;20260;-57
2020/12/16 02:20:12;;;;;;;3.07;2.77;;;;;;;;;;5093575;28;20651;-56
2020/12/16 02:22:38;;;;;;;3.30;3.00;;;;;;;;;;5092851;27;20236;-57
2020/12/16 02:25:08;;;;;;;3.97;3.23;;;;;;;;;;5104656;28;20179;-59
2020/12/16 02:27:34;;;;;;;3.40;3.00;;;;;;;;;;5111320;27;20186;-60
2020/12/16 02:30:00;;;;;;;4.07;2.87;;;;;;;;;;5099421;28;20534;-57
2020/12/16 02:32:27;;;;;;;3.10;2.80;;;;;;;;;;5108485;28;20172;-57
2020/12/16 02:34:54;;;;;;;3.37;3.07;;;;;;;;;;5093586;28;20190;-57
2020/12/16 02:37:21;;;;;;;3.20;2.90;;;;;;;;;;5089846;28;20700;-56
2020/12/16 02:39:47;;;;;;;3.40;2.77;;;;;;;;;;5102185;28;20182;-58
2020/12/16 02:42:13;;;;;;;2.90;2.57;;;;;;;;;;5100670;28;20172;-57
2020/12/16 02:44:39;;;;;;;4.57;2.80;;;;;;;;;;5092182;28;20237;-57
2020/12/16 02:47:06;;;;;;;5.07;3.27;;;;;;;;;;5087490;28;20225;-57
2020/12/16 02:49:32;;;;;;;3.47;3.07;;;;;;;;;;5099838;28;20190;-57
2020/12/16 02:51:59;;;;;;;3.47;3.00;;;;;;;;;;5102408;28;20627;-56
2020/12/16 02:54:26;;;;;;;4.37;3.03;;;;;;;;;;5101649;27;20183;-57
2020/12/16 02:56:53;;;;;;;3.33;2.80;;;;;;;;;;5104350;27;20205;-57
2020/12/16 02:59:23;;;;;;;2.83;2.63;;;;;;;;;;5108617;27;20737;-57
2020/12/16 03:01:50;;;;;;;3.43;3.13;;;;;;;;;;5099771;28;20184;-57
2020/12/16 03:04:16;;;;;;;3.50;3.13;;;;;;;;;;5084858;28;20223;-56
2020/12/16 03:06:42;;;;;;;5.07;3.33;;;;;;;;;;5109144;28;20183;-57
2020/12/16 03:09:08;;;;;;;3.50;3.20;;;;;;;;;;5105109;28;20520;-57
2020/12/16 03:11:34;;;;;;;3.30;3.00;;;;;;;;;;5105513;28;20208;-57
2020/12/16 03:14:00;;;;;;;3.27;2.97;;;;;;;;;;5099533;28;20243;-57
2020/12/16 03:16:26;;;;;;;3.30;3.00;;;;;;;;;;5090699;28;20631;-57
2020/12/16 03:18:52;;;;;;;3.40;3.10;;;;;;;;;;5092782;28;20241;-58
2020/12/16 03:21:25;;;;;;;3.10;2.80;;;;;;;;;;5105697;28;20229;-58
2020/12/16 03:23:51;;;;;;;3.07;2.83;;;;;;;;;;5100519;28;20470;-57
2020/12/16 03:26:17;;;;;;;3.30;2.97;;;;;;;;;;5074647;28;20171;-57
2020/12/16 03:28:43;;;;;;;3.60;2.97;;;;;;;;;;5093411;28;20553;-56
2020/12/16 03:31:10;;;;;;;5.13;2.70;;;;;;;;;;5105741;28;21051;-57
2020/12/16 03:33:36;;;;;;;4.37;3.03;;;;;;;;;;5099917;28;20208;-57
2020/12/16 03:36:02;;;;;;;2.80;2.60;;;;;;;;;;5086534;28;20175;-57
2020/12/16 03:38:28;;;;;;;4.13;2.90;;;;;;;;;;5074050;28;20218;-57
2020/12/16 03:40:57;;;;;;;3.67;3.37;;;;;;;;;;5103312;28;20625;-57
2020/12/16 03:43:23;;;;;;;3.37;3.07;;;;;;;;;;5102639;28;20201;-57
2020/12/16 03:45:50;;;;;;;4.23;3.40;;;;;;;;;;5103450;28;20207;-58
2020/12/16 03:48:16;;;;;;;3.47;3.07;;;;;;;;;;5104400;28;20175;-57
2020/12/16 03:50:42;;;;;;;3.30;3.00;;;;;;;;;;5108321;28;20222;-57
2020/12/16 03:53:08;;;;;;;3.53;3.00;;;;;;;;;;5082815;28;20492;-57
2020/12/16 03:55:34;;;;;;;4.40;3.43;;;;;;;;;;5083100;28;20271;-57
2020/12/16 03:58:00;;;;;;;3.50;2.77;;;;;;;;;;5104803;28;20213;-57
2020/12/16 04:00:26;;;;;;;6.23;2.77;;;;;;;;;;5101574;28;20215;-57
2020/12/16 04:02:52;;;;;;;3.87;3.30;;;;;;;;;;5108310;28;20237;-57
2020/12/16 04:05:18;;;;;;;3.97;3.57;;;;;;;;;;5058681;28;20227;-57
2020/12/16 04:07:44;;;;;;;4.47;3.17;;;;;;;;;;5057813;28;20180;-56
2020/12/16 04:10:11;;;;;;;4.90;3.23;;;;;;;;;;5070796;28;20192;-57
2020/12/16 04:12:37;;;;;;;4.30;3.30;;;;;;;;;;5076581;28;20620;-56
2020/12/16 04:15:04;;;;;;;3.53;2.80;;;;;;;;;;5087048;28;20184;-56
2020/12/16 04:17:32;;;;;;;3.67;3.27;;;;;;;;;;5073498;28;20477;-59
2020/12/16 04:19:58;;;;;;;3.53;3.23;;;;;;;;;;5087783;28;20175;-57
2020/12/16 04:22:24;;;;;;;3.70;3.00;;;;;;;;;;5077937;28;20566;-60
2020/12/16 04:24:50;;;;;;;4.43;4.03;;;;;;;;;;5082485;28;20499;-61
2020/12/16 04:27:17;;;;;;;3.73;3.33;;;;;;;;;;5084312;28;20426;-60
2020/12/16 04:29:43;;;;;;;3.60;3.27;;;;;;;;;;5087477;28;20200;-60
2020/12/16 04:32:10;;;;;;;3.97;3.27;;;;;;;;;;5061018;28;20442;-60
2020/12/16 04:34:36;;;;;;;3.53;3.07;;;;;;;;;;5086339;28;20658;-60
2020/12/16 04:37:03;;;;;;;3.93;3.60;;;;;;;;;;5078502;28;20200;-60
2020/12/16 04:39:29;;;;;;;4.00;3.30;;;;;;;;;;5073771;28;20449;-60
2020/12/16 04:41:56;;;;;;;8.40;3.70;;;;;;;;;;5054058;28;20183;-62
2020/12/16 04:44:22;;;;;;;3.60;3.30;;;;;;;;;;5069280;28;20176;-60
2020/12/16 04:46:48;;;;;;;3.97;3.47;;;;;;;;;;5086155;28;20619;-60
2020/12/16 04:49:15;;;;;;;4.67;3.80;;;;;;;;;;5076338;28;20243;-60
2020/12/16 04:51:42;;;;;;;4.03;3.10;;;;;;;;;;5081951;28;20180;-60
2020/12/16 04:54:08;;;;;;;4.33;3.30;;;;;;;;;;5068029;28;20207;-60
2020/12/16 04:56:36;;;;;;;4.23;3.83;;;;;;;;;;5080622;28;20179;-60
2020/12/16 04:59:02;;;;;;;4.20;3.67;;;;;;;;;;5062596;28;20701;-60
2020/12/16 05:01:28;;;;;;;3.50;3.20;;;;;;;;;;5071148;28;20175;-60
2020/12/16 05:03:54;;;;;;;4.90;4.03;;;;;;;;;;5081144;28;20257;-60
2020/12/16 05:06:33;;;;;;;4.23;3.83;;;;;;;;;;5107136;28;20187;-60
2020/12/16 05:09:05;;;;;;;4.00;3.57;;;;;;;;;;5121628;27;20782;-60
2020/12/16 05:11:35;;;;;;;4.17;3.67;;;;;;;;;;5102175;28;20439;-60
2020/12/16 05:14:08;;;;;;;4.43;3.70;;;;;;;;;;5102611;28;20176;-62
2020/12/16 05:16:51;;;;;;;4.90;4.20;;;;;;;;;;5098495;28;20418;-59
2020/12/16 05:19:33;;;;;;;5.87;4.17;;;;;;;;;;5100344;28;20242;-60
2020/12/16 05:22:18;;;;;;;4.07;3.67;;;;;;;;;;5093733;28;20182;-60
2020/12/16 05:24:45;;;;;;;5.13;4.20;;;;;;;;;;5099850;27;20810;-60
2020/12/16 05:27:16;;;;;;;5.20;4.03;;;;;;;;;;5082566;28;20209;-60
2020/12/16 05:29:42;;;;;;;6.20;3.60;;;;;;;;;;5114393;27;20802;-60
2020/12/16 05:32:34;;;;;;;4.43;3.90;;;;;;;;;;5078206;28;20445;-59
2020/12/16 05:35:01;;;;;;;5.13;4.03;;;;;;;;;;5101588;27;20434;-60
2020/12/16 05:37:27;;;;;;;4.27;3.77;;;;;;;;;;5106331;27;20809;-60
2020/12/16 05:39:57;;;;;;;5.43;4.53;;;;;;;;;;5099842;28;20425;-61
2020/12/16 05:42:24;;;;;;;3.93;3.53;;;;;;;;;;5104722;28;20536;-60
2020/12/16 05:44:50;;;;;;;4.90;4.23;;;;;;;;;;5111334;27;20424;-61
2020/12/16 05:47:16;;;;;;;5.33;3.90;;;;;;;;;;5104772;28;20425;-60
2020/12/16 05:49:42;;;;;;;3.97;3.57;;;;;;;;;;5103548;28;20426;-60
2020/12/16 05:52:08;;;;;;;4.73;3.93;;;;;;;;;;5094636;28;20231;-60
2020/12/16 05:54:36;;;;;;;3.90;3.33;;;;;;;;;;5097581;28;20598;-60
2020/12/16 05:57:09;;;;;;;4.70;4.17;;;;;;;;;;5121446;27;20463;-60
2020/12/16 05:59:35;;;;;;;4.87;3.70;;;;;;;;;;5115517;27;20414;-60
2020/12/16 06:02:04;;;;;;;4.77;3.90;;;;;;;;;;5073513;28;20414;-60
2020/12/16 06:04:33;;;;;;;6.63;4.17;;;;;;;;;;5091804;28;20227;-61
2020/12/16 06:06:59;;;;;;;5.00;4.00;;;;;;;;;;5092229;28;20406;-60
2020/12/16 06:09:25;;;;;;;4.87;4.10;;;;;;;;;;5073685;28;20414;-60
2020/12/16 06:11:55;;;;;;;4.53;3.63;;;;;;;;;;5079109;28;20424;-60
2020/12/16 06:14:22;;;;;;;6.53;4.20;;;;;;;;;;5093983;28;20179;-60
2020/12/16 06:16:48;;;;;;;5.03;4.17;;;;;;;;;;5102112;28;20417;-60
2020/12/16 06:19:25;;;;;;;4.90;4.33;;;;;;;;;;5077140;28;20923;-60
2020/12/16 06:21:56;;;;;;;4.87;4.23;;;;;;;;;;5106268;28;20410;-62
2020/12/16 06:24:28;;;;;;;4.53;4.10;;;;;;;;;;5109181;28;20417;-60
2020/12/16 06:26:59;;;;;;;5.77;4.50;;;;;;;;;;5122805;27;20438;-60
2020/12/16 06:29:25;;;;;;;5.60;4.53;;;;;;;;;;5133074;27;20391;-60
2020/12/16 06:31:52;;;;;;;5.23;4.23;;;;;;;;;;5113536;27;20519;-60
2020/12/16 06:34:18;;;;;;;4.50;4.00;;;;;;;;;;5111086;28;20492;-60
2020/12/16 06:36:45;;;;;;;6.23;4.70;;;;;;;;;;5103187;28;20428;-60
2020/12/16 06:39:15;;;;;;;4.83;4.43;;;;;;;;;;5088081;28;20437;-60
2020/12/16 06:41:50;;;;;;;5.10;4.20;;;;;;;;;;5083059;28;20429;-60
2020/12/16 06:44:16;;;;;;;4.50;4.00;;;;;;;;;;5109457;28;20437;-59
2020/12/16 06:46:44;;;;;;;5.33;4.47;;;;;;;;;;5107847;28;20802;-60
2020/12/16 06:49:23;;;;;;;5.43;4.30;;;;;;;;;;5077522;28;20185;-60
2020/12/16 06:51:53;;;;;;;5.13;4.40;;;;;;;;;;5091748;28;20410;-60
2020/12/16 06:54:20;;;;;;;5.17;4.53;;;;;;;;;;5105001;28;20401;-59
2020/12/16 06:56:47;;;;;;;4.60;4.03;;;;;;;;;;5104225;28;20907;-60
2020/12/16 06:59:13;;;;;;;4.70;4.07;;;;;;;;;;5097429;28;20489;-60
2020/12/16 07:01:39;;;;;;;4.53;4.13;;;;;;;;;;5094467;27;20456;-60
2020/12/16 07:04:12;;;;;;;4.87;4.20;;;;;;;;;;5126810;27;20468;-60
2020/12/16 07:06:39;;;;;;;4.90;4.27;;;;;;;;;;5087155;28;20997;-60
2020/12/16 07:09:35;;;;;;;5.07;4.57;;;;;;;;;;5086696;28;20436;-60
2020/12/16 07:12:01;;;;;;;5.47;4.70;;;;;;;;;;5080503;28;20437;-60
2020/12/16 07:14:34;;;;;;;6.30;4.20;;;;;;;;;;5103862;28;20421;-61
2020/12/16 07:17:08;;;;;;;5.20;4.60;;;;;;;;;;5072744;28;20461;-59
2020/12/16 07:19:35;;;;;;;5.63;4.20;;;;;;;;;;5096661;28;20756;-60
2020/12/16 07:22:17;;;;;;;5.00;4.50;;;;;;;;;;5113501;27;20493;-60
2020/12/16 07:24:49;;;;;;;5.10;4.63;;;;;;;;;;5095287;28;20805;-60
2020/12/16 07:27:22;;;;;;;5.70;4.60;;;;;;;;;;5106484;28;20441;-59
2020/12/16 07:29:59;;;;;;;6.30;5.03;;;;;;;;;;5111589;28;20456;-60
2020/12/16 07:32:25;;;;;;;5.07;4.40;;;;;;;;;;5111272;28;20412;-60
2020/12/16 07:34:56;;;;;;;5.07;4.20;;;;;;;;;;5085697;28;20451;-60
2020/12/16 07:37:26;;;;;;;5.13;4.63;;;;;;;;;;5105264;27;20550;-60
2020/12/16 07:39:54;;;;;;;4.87;4.33;;;;;;;;;;5094273;28;20426;-62
2020/12/16 07:42:20;;;;;;;5.07;4.50;;;;;;;;;;5117920;27;20420;-59
2020/12/16 07:44:46;;;;;;;6.10;5.17;;;;;;;;;;5097505;28;20408;-60
2020/12/16 07:47:12;;;;;;;5.70;4.20;;;;;;;;;;5110374;28;20425;-61
2020/12/16 07:49:40;;;;;;;4.87;4.43;;;;;;;;;;5076855;28;20424;-61
2020/12/16 07:52:06;;;;;;;6.20;5.00;;;;;;;;;;5097710;28;20417;-60
2020/12/16 07:54:32;;;;;;;5.93;5.17;;;;;;;;;;5102646;28;20429;-60
2020/12/16 07:56:58;;;;;;;6.30;4.87;;;;;;;;;;5105666;28;20434;-61
2020/12/16 07:59:32;;;;;;;5.37;4.57;;;;;;;;;;5078354;28;20432;-60
2020/12/16 08:02:08;;;;;;;5.07;4.57;;;;;;;;;;5092224;28;20401;-60
2020/12/16 08:04:35;;;;;;;4.87;4.37;;;;;;;;;;5085615;28;20823;-60
2020/12/16 08:07:21;;;;;;;4.73;3.73;;;;;;;;;;5082366;28;20447;-61
2020/12/16 08:09:57;;;;;;;5.33;4.80;;;;;;;;;;5083907;28;20443;-60
2020/12/16 08:12:23;;;;;;;4.90;4.40;;;;;;;;;;5105671;28;20192;-61
2020/12/16 08:15:08;;;;;;;6.00;4.67;;;;;;;;;;5104110;28;20405;-61
2020/12/16 08:17:38;;;;;;;5.53;4.77;;;;;;;;;;5110097;28;20451;-61
2020/12/16 08:20:13;;;;;;;6.37;5.47;;;;;;;;;;5114010;28;20472;-60
2020/12/16 08:22:39;;;;;;;6.53;4.67;;;;;;;;;;5095831;28;20796;-60
2020/12/16 08:25:10;;;;;;;5.30;4.60;;;;;;;;;;5113467;27;20404;-60
2020/12/16 08:27:37;;;;;;;5.97;4.77;;;;;;;;;;5119590;27;20447;-61
2020/12/16 08:30:04;;;;;;;6.40;5.57;;;;;;;;;;5096020;28;20508;-61
2020/12/16 08:32:32;;;;;;;6.47;4.90;;;;;;;;;;5115315;27;20429;-60
2020/12/16 08:34:59;;;;;;;6.03;5.17;;;;;;;;;;5093398;28;20854;-63
2020/12/16 08:37:25;;;;;;;9.10;6.37;;;;;;;;;;5113144;28;20506;-63
2020/12/16 08:39:51;;;;;;;8.47;7.40;;;;;;;;;;5114195;28;20409;-62
2020/12/16 08:42:24;;;;;;;10.87;8.27;;;;;;;;;;5096192;28;20400;-62
2020/12/16 08:44:50;;;;;;;10.37;7.80;;;;;;;;;;5076197;28;20414;-63
2020/12/16 08:47:23;;;;;;;12.33;9.33;;;;;;;;;;5101090;28;21246;-62
2020/12/16 08:49:50;;;;;;;12.97;9.30;;;;;;;;;;5113301;28;20946;-62
2020/12/16 08:52:16;;;;;;;15.53;10.70;;;;;;;;;;5114004;28;20850;-62
2020/12/16 08:54:44;;;;;;;14.70;11.17;;;;;;;;;;5113819;28;20494;-63
2020/12/16 08:57:11;;;;;;;14.10;10.10;;;;;;;;;;5076218;28;20472;-61
2020/12/16 08:59:37;;;;;;;15.17;10.90;;;;;;;;;;5113420;27;20440;-62
2020/12/16 09:02:03;;;;;;;14.23;10.40;;;;;;;;;;5114296;28;20400;-62
2020/12/16 09:04:30;;;;;;;16.80;12.10;;;;;;;;;;5114015;28;20459;-63
2020/12/16 09:07:05;;;;;;;17.27;12.07;;;;;;;;;;5096677;28;20464;-62
2020/12/16 09:09:32;;;;;;;17.70;11.73;;;;;;;;;;5113169;28;20550;-62
2020/12/16 09:11:58;;;;;;;19.87;12.80;;;;;;;;;;5106503;28;20899;-62
2020/12/16 09:14:24;;;;;;;20.40;12.97;;;;;;;;;;5078719;28;20466;-63
2020/12/16 09:16:51;;;;;;;19.17;12.40;;;;;;;;;;5106848;28;20424;-62
2020/12/16 09:19:24;;;;;;;19.20;12.17;;;;;;;;;;5110761;28;20413;-63
2020/12/16 09:21:50;;;;;;;18.33;11.60;;;;;;;;;;5093706;28;20225;-62
2020/12/16 09:24:20;;;;;;;20.17;12.93;;;;;;;;;;5103165;28;20413;-63
2020/12/16 09:26:47;;;;;;;23.57;13.37;;;;;;;;;;5112620;28;20484;-62
2020/12/16 09:29:16;;;;;;;24.00;13.10;;;;;;;;;;5108581;27;20190;-62
2020/12/16 09:31:42;;;;;;;22.20;14.20;;;;;;;;;;5115346;27;20290;-62
2020/12/16 09:34:08;;;;;;;26.23;14.47;;;;;;;;;;5085958;28;20418;-62
2020/12/16 09:36:34;;;;;;;21.67;13.43;;;;;;;;;;5093723;28;20242;-62
2020/12/16 09:39:01;;;;;;;25.00;14.00;;;;;;;;;;5111959;28;20256;-62
2020/12/16 09:41:28;;;;;;;24.73;13.97;;;;;;;;;;5112834;28;20167;-63
2020/12/16 09:43:54;;;;;;;22.87;14.27;;;;;;;;;;5110253;28;20697;-65
2020/12/16 09:46:21;;;;;;;22.83;13.20;;;;;;;;;;5093312;28;20167;-63
2020/12/16 09:48:48;;;;;;;24.30;15.50;;;;;;;;;;5096227;28;20172;-62
2020/12/16 09:51:18;;;;;;;22.13;13.60;;;;;;;;;;5112196;28;20175;-65
2020/12/16 09:53:47;;;;;;;18.77;12.60;;;;;;;;;;5112696;28;20168;-64
2020/12/16 09:56:23;;;;;;;23.47;13.57;;;;;;;;;;5099473;28;20241;-63
2020/12/16 09:58:49;;;;;;;20.73;13.07;;;;;;;;;;5095875;27;20212;-65
2020/12/16 10:01:15;;;;;;;22.03;13.53;;;;;;;;;;5090903;27;20203;-63
2020/12/16 10:03:41;;;;;;;17.83;12.10;;;;;;;;;;5110589;27;20571;-62
2020/12/16 10:06:14;;;;;;;21.20;12.87;;;;;;;;;;5107046;28;20168;-63
2020/12/16 10:08:40;;;;;;;16.50;10.73;;;;;;;;;;5112764;28;20612;-63
2020/12/16 10:11:15;;;;;;;19.43;12.63;;;;;;;;;;5094844;28;20175;-62
2020/12/16 10:13:43;;;;;;;16.87;11.67;;;;;;;;;;5113067;28;20570;-62
2020/12/16 10:16:09;;;;;;;15.00;11.00;;;;;;;;;;5112189;28;20596;-62
2020/12/16 10:18:35;;;;;;;18.30;11.30;;;;;;;;;;5102141;28;20536;-62
2020/12/16 10:21:01;;;;;;;16.50;11.60;;;;;;;;;;5087091;28;20172;-62
2020/12/16 10:23:27;;;;;;;16.00;10.17;;;;;;;;;;5112978;28;20167;-61
2020/12/16 10:25:54;;;;;;;13.83;10.37;;;;;;;;;;5111678;28;20621;-62
2020/12/16 10:28:21;;;;;;;12.73;9.60;;;;;;;;;;5102832;27;20546;-61
2020/12/16 10:30:48;;;;;;;11.53;9.20;;;;;;;;;;5132510;27;20277;-61
2020/12/16 10:33:15;;;;;;;13.23;9.47;;;;;;;;;;5108195;27;20179;-64
2020/12/16 10:35:41;;;;;;;11.73;8.53;;;;;;;;;;5100186;28;20178;-61
2020/12/16 10:38:07;;;;;;;8.37;7.27;;;;;;;;;;5118409;27;20198;-62
2020/12/16 10:40:34;;;;;;;10.07;8.30;;;;;;;;;;5092046;28;20237;-63
2020/12/16 10:43:00;;;;;;;9.90;7.67;;;;;;;;;;5088043;28;20189;-61
2020/12/16 10:45:27;;;;;;;10.73;7.80;;;;;;;;;;5108244;28;20246;-61
2020/12/16 10:47:57;;;;;;;8.77;6.93;;;;;;;;;;5101203;27;20681;-61
2020/12/16 10:50:30;;;;;;;8.50;7.07;;;;;;;;;;5103288;27;20207;-62
2020/12/16 10:52:56;;;;;;;13.00;8.27;;;;;;;;;;5111570;28;20246;-61
2020/12/16 10:55:22;;;;;;;10.77;7.70;;;;;;;;;;5093414;28;20233;-61
2020/12/16 10:57:48;;;;;;;10.43;7.87;;;;;;;;;;5116136;27;20222;-61
2020/12/16 11:00:14;;;;;;;10.40;7.70;;;;;;;;;;5081400;28;20207;-62
2020/12/16 11:02:40;;;;;;;9.83;7.70;;;;;;;;;;5111382;28;20163;-62
2020/12/16 11:05:06;;;;;;;9.60;7.73;;;;;;;;;;5110986;28;20254;-61
2020/12/16 11:07:32;;;;;;;9.93;8.03;;;;;;;;;;5106849;27;20191;-64
2020/12/16 11:09:58;;;;;;;8.33;7.27;;;;;;;;;;5079031;28;20183;-61
2020/12/16 11:12:25;;;;;;;7.97;7.17;;;;;;;;;;5098953;28;20188;-61
2020/12/16 11:14:51;;;;;;;9.20;7.70;;;;;;;;;;5073460;28;20175;-62
2020/12/16 11:17:17;;;;;;;10.33;6.87;;;;;;;;;;5090672;28;20231;-61
2020/12/16 11:19:43;;;;;;;9.17;7.53;;;;;;;;;;5090709;28;20163;-61
2020/12/16 11:22:09;;;;;;;7.90;7.10;;;;;;;;;;5101853;28;20175;-61
2020/12/16 11:24:35;;;;;;;10.73;7.30;;;;;;;;;;5090538;28;20241;-64
2020/12/16 11:27:01;;;;;;;7.93;6.87;;;;;;;;;;5112154;27;20178;-61
2020/12/16 11:29:27;;;;;;;7.40;6.60;;;;;;;;;;5118033;27;20201;-62
2020/12/16 11:31:54;;;;;;;7.43;6.43;;;;;;;;;;5106568;28;20649;-62
2020/12/16 11:34:25;;;;;;;7.23;6.23;;;;;;;;;;5094150;28;20190;-63
2020/12/16 11:36:53;;;;;;;6.17;5.40;;;;;;;;;;5091073;28;20168;-62
2020/12/16 11:39:20;;;;;;;9.90;6.53;;;;;;;;;;5073619;28;20207;-61
2020/12/16 11:41:47;;;;;;;7.40;6.57;;;;;;;;;;5107024;28;20178;-61
2020/12/16 11:44:16;;;;;;;10.17;7.93;;;;;;;;;;5091367;28;20694;-62
2020/12/16 11:46:42;;;;;;;7.63;6.83;;;;;;;;;;5072977;28;20172;-60
2020/12/16 11:49:08;;;;;;;8.60;6.30;;;;;;;;;;5091257;28;20168;-61
2020/12/16 11:51:34;;;;;;;9.33;7.07;;;;;;;;;;5091378;28;20179;-61
2020/12/16 11:54:00;;;;;;;8.60;7.50;;;;;;;;;;5090832;28;20175;-63
2020/12/16 11:56:26;;;;;;;7.83;6.93;;;;;;;;;;5074239;28;20232;-61
2020/12/16 11:58:52;;;;;;;9.57;8.43;;;;;;;;;;5095590;28;20226;-61
2020/12/16 12:01:19;;;;;;;10.53;7.30;;;;;;;;;;5111108;28;20202;-61
2020/12/16 12:03:45;;;;;;;7.70;6.57;;;;;;;;;;5110275;28;20242;-63
2020/12/16 12:06:12;;;;;;;7.67;6.87;;;;;;;;;;5111292;28;20171;-62
2020/12/16 12:08:39;;;;;;;8.30;7.13;;;;;;;;;;5085235;28;20216;-61
2020/12/16 12:11:05;;;;;;;6.90;6.20;;;;;;;;;;5090638;28;20229;-61
2020/12/16 12:13:31;;;;;;;7.27;6.57;;;;;;;;;;5072473;28;20183;-61
2020/12/16 12:15:57;;;;;;;7.93;6.60;;;;;;;;;;5108678;28;20183;-62
2020/12/16 12:18:23;;;;;;;7.20;5.67;;;;;;;;;;5110522;28;20191;-61
2020/12/16 12:20:49;;;;;;;7.27;6.50;;;;;;;;;;5105537;28;20179;-61
2020/12/16 12:23:15;;;;;;;6.37;5.77;;;;;;;;;;5091505;28;20181;-60
2020/12/16 12:25:41;;;;;;;6.40;5.37;;;;;;;;;;5096674;28;20236;-61
2020/12/16 12:28:07;;;;;;;5.90;5.30;;;;;;;;;;5097080;28;20236;-61
2020/12/16 12:30:34;;;;;;;6.13;5.53;;;;;;;;;;5108591;28;20199;-62
2020/12/16 12:33:00;;;;;;;5.70;5.10;;;;;;;;;;5109588;28;20175;-61
2020/12/16 12:35:26;;;;;;;5.83;4.50;;;;;;;;;;5109170;28;20552;-64
2020/12/16 12:37:52;;;;;;;5.83;4.67;;;;;;;;;;5100095;28;20202;-61
2020/12/16 12:40:18;;;;;;;4.83;4.37;;;;;;;;;;5108069;28;20168;-60
2020/12/16 12:42:44;;;;;;;5.00;4.40;;;;;;;;;;5109409;28;20175;-63
2020/12/16 12:45:10;;;;;;;4.77;4.27;;;;;;;;;;5108428;28;20685;-61
2020/12/16 12:47:36;;;;;;;4.90;4.40;;;;;;;;;;5097772;28;20175;-61
2020/12/16 12:50:02;;;;;;;6.53;4.33;;;;;;;;;;5085542;28;20183;-63
2020/12/16 12:52:28;;;;;;;4.40;4.00;;;;;;;;;;5089285;28;20211;-60
2020/12/16 12:54:54;;;;;;;5.40;4.23;;;;;;;;;;5089493;28;20649;-61
2020/12/16 12:57:20;;;;;;;5.00;4.47;;;;;;;;;;5089755;28;20227;-63
2020/12/16 12:59:47;;;;;;;3.83;3.43;;;;;;;;;;5090638;28;20668;-63
2020/12/16 13:02:14;;;;;;;4.10;3.70;;;;;;;;;;5091309;28;20184;-62
2020/12/16 13:04:40;;;;;;;3.97;3.60;;;;;;;;;;5093619;28;20220;-62
2020/12/16 13:07:06;;;;;;;4.20;3.80;;;;;;;;;;5106419;28;20175;-63
2020/12/16 13:09:32;;;;;;;7.10;4.20;;;;;;;;;;5114559;28;20619;-63
2020/12/16 13:11:58;;;;;;;5.47;3.73;;;;;;;;;;5092482;28;20664;-62
2020/12/16 13:14:24;;;;;;;4.03;3.47;;;;;;;;;;5115577;27;20182;-62
2020/12/16 13:16:50;;;;;;;3.83;3.50;;;;;;;;;;5095255;27;20656;-63
2020/12/16 13:19:16;;;;;;;3.97;3.50;;;;;;;;;;5101076;28;20207;-61
2020/12/16 13:21:51;;;;;;;4.50;4.10;;;;;;;;;;5082080;28;20282;-62
2020/12/16 13:24:41;;;;;;;3.80;3.50;;;;;;;;;;5098908;28;20168;-61
2020/12/16 13:27:07;;;;;;;5.10;3.33;;;;;;;;;;5079456;28;20191;-62
2020/12/16 13:29:33;;;;;;;4.17;3.77;;;;;;;;;;5104708;28;20172;-60
2020/12/16 13:31:59;;;;;;;3.73;3.40;;;;;;;;;;5094009;28;20191;-62
2020/12/16 13:34:25;;;;;;;4.13;3.77;;;;;;;;;;5108517;28;20176;-61
2020/12/16 13:36:51;;;;;;;3.50;3.20;;;;;;;;;;5101592;28;20172;-61
2020/12/16 13:39:18;;;;;;;5.07;4.30;;;;;;;;;;5084325;28;20272;-62
2020/12/16 13:41:47;;;;;;;4.03;3.63;;;;;;;;;;5085243;28;20180;-64
2020/12/16 13:44:13;;;;;;;4.17;3.77;;;;;;;;;;5093073;28;20541;-64
2020/12/16 13:46:39;;;;;;;4.10;3.60;;;;;;;;;;5103830;28;20183;-63
2020/12/16 13:49:08;;;;;;;4.17;3.77;;;;;;;;;;5111785;28;20229;-64
2020/12/16 13:51:34;;;;;;;4.10;3.77;;;;;;;;;;5078594;28;20228;-66
2020/12/16 13:54:00;;;;;;;4.33;3.93;;;;;;;;;;5082415;28;20191;-63
2020/12/16 13:56:29;;;;;;;4.07;3.67;;;;;;;;;;5075815;28;20184;-64
2020/12/16 13:58:58;;;;;;;4.50;3.80;;;;;;;;;;5093235;28;20666;-64
2020/12/16 14:01:25;;;;;;;4.43;4.03;;;;;;;;;;5099743;28;20257;-64
2020/12/16 14:03:51;;;;;;;4.90;4.20;;;;;;;;;;5108277;28;20240;-63
2020/12/16 14:06:17;;;;;;;7.13;4.23;;;;;;;;;;5100801;28;20190;-64
2020/12/16 14:08:43;;;;;;;7.03;3.90;;;;;;;;;;5103780;27;20198;-63
2020/12/16 14:11:10;;;;;;;4.23;3.70;;;;;;;;;;5103773;28;20657;-63
2020/12/16 14:13:36;;;;;;;4.40;4.00;;;;;;;;;;5104047;28;20179;-63
2020/12/16 14:16:05;;;;;;;4.23;3.80;;;;;;;;;;5103045;28;20190;-64
2020/12/16 14:18:31;;;;;;;4.60;4.10;;;;;;;;;;5079113;28;20741;-63
2020/12/16 14:20:57;;;;;;;5.00;3.70;;;;;;;;;;5103135;28;20293;-63
2020/12/16 14:23:23;;;;;;;4.73;4.23;;;;;;;;;;5106046;28;20526;-64
2020/12/16 14:25:49;;;;;;;6.60;3.97;;;;;;;;;;5104703;28;20258;-64
2020/12/16 14:28:15;;;;;;;4.67;4.27;;;;;;;;;;5115451;27;20242;-64
2020/12/16 14:30:41;;;;;;;4.30;3.93;;;;;;;;;;5093616;28;20195;-63
2020/12/16 14:33:07;;;;;;;4.87;3.77;;;;;;;;;;5083246;28;20182;-62
2020/12/16 14:35:34;;;;;;;3.83;3.53;;;;;;;;;;5094243;28;20187;-63
2020/12/16 14:38:03;;;;;;;4.20;3.80;;;;;;;;;;5104594;27;20205;-63
2020/12/16 14:40:30;;;;;;;3.97;3.67;;;;;;;;;;5099740;27;20886;-62
2020/12/16 14:42:56;;;;;;;4.53;3.60;;;;;;;;;;5108754;27;20610;-62